sensor_id;sensor_type;location;lat;lon;timestamp;pressure;altitude;pressure_sealevel;temperature;humidity
84944;BME280;75231;53.650;9.788;2024-01-11T00:00:18;103561.94;;;-0.54;87.63
84944;BME280;75231;53.650;9.788;2024-01-11T00:02:44;103550.09;;;-0.53;88.02
84944;BME280;75231;53.650;9.788;2024-01-11T00:05:10;103533.97;;;-0.54;88.29
84944;BME280;75231;53.650;9.788;2024-01-11T00:07:35;103525.44;;;-0.56;88.33
84944;BME280;75231;53.650;9.788;2024-01-11T00:10:02;103523.06;;;-0.50;88.48
84944;BME280;75231;53.650;9.788;2024-01-11T00:15:49;103524.56;;;-0.57;88.90
84944;BME280;75231;53.650;9.788;2024-01-11T00:18:15;103535.81;;;-0.48;88.62
84944;BME280;75231;53.650;9.788;2024-01-11T00:20:40;103525.78;;;-0.44;88.49
84944;BME280;75231;53.650;9.788;2024-01-11T00:23:05;103516.41;;;-0.45;88.26
84944;BME280;75231;53.650;9.788;2024-01-11T00:25:30;103513.88;;;-0.45;88.43
84944;BME280;75231;53.650;9.788;2024-01-11T00:27:56;103514.78;;;-0.43;88.44
84944;BME280;75231;53.650;9.788;2024-01-11T00:30:21;103524.88;;;-0.46;88.70
84944;BME280;75231;53.650;9.788;2024-01-11T00:32:48;103513.63;;;-0.54;87.84
84944;BME280;75231;53.650;9.788;2024-01-11T00:35:13;103494.88;;;-0.58;88.79
84944;BME280;75231;53.650;9.788;2024-01-11T00:37:39;103491.69;;;-0.50;88.81
84944;BME280;75231;53.650;9.788;2024-01-11T00:40:05;103495.00;;;-0.53;88.73
84944;BME280;75231;53.650;9.788;2024-01-11T00:42:30;103488.19;;;-0.55;88.65
84944;BME280;75231;53.650;9.788;2024-01-11T00:44:56;103489.97;;;-0.51;88.60
84944;BME280;75231;53.650;9.788;2024-01-11T00:47:21;103491.72;;;-0.49;88.52
84944;BME280;75231;53.650;9.788;2024-01-11T00:49:46;103491.50;;;-0.57;88.70
84944;BME280;75231;53.650;9.788;2024-01-11T00:52:11;103496.72;;;-0.52;88.20
84944;BME280;75231;53.650;9.788;2024-01-11T00:54:39;103477.09;;;-0.58;88.51
84944;BME280;75231;53.650;9.788;2024-01-11T00:57:04;103467.78;;;-0.57;88.04
84944;BME280;75231;53.650;9.788;2024-01-11T00:59:29;103455.81;;;-0.61;88.31
84944;BME280;75231;53.650;9.788;2024-01-11T01:01:55;103450.72;;;-0.61;88.41
84944;BME280;75231;53.650;9.788;2024-01-11T01:04:20;103471.06;;;-0.61;89.36
84944;BME280;75231;53.650;9.788;2024-01-11T01:06:45;103469.41;;;-0.59;88.65
84944;BME280;75231;53.650;9.788;2024-01-11T01:09:11;103472.06;;;-0.56;88.92
84944;BME280;75231;53.650;9.788;2024-01-11T01:11:38;103458.56;;;-0.53;88.61
84944;BME280;75231;53.650;9.788;2024-01-11T01:14:03;103440.75;;;-0.55;88.94
84944;BME280;75231;53.650;9.788;2024-01-11T01:16:28;103445.03;;;-0.52;88.68
84944;BME280;75231;53.650;9.788;2024-01-11T01:18:54;103451.75;;;-0.54;88.60
84944;BME280;75231;53.650;9.788;2024-01-11T01:21:19;103438.81;;;-0.64;89.20
84944;BME280;75231;53.650;9.788;2024-01-11T01:23:44;103451.38;;;-0.68;88.78
84944;BME280;75231;53.650;9.788;2024-01-11T01:26:10;103451.38;;;-0.68;88.52
84944;BME280;75231;53.650;9.788;2024-01-11T01:28:35;103453.88;;;-0.70;89.21
84944;BME280;75231;53.650;9.788;2024-01-11T01:31:01;103451.31;;;-0.71;89.31
84944;BME280;75231;53.650;9.788;2024-01-11T01:33:26;103453.25;;;-0.63;89.09
84944;BME280;75231;53.650;9.788;2024-01-11T01:35:52;103458.34;;;-0.61;88.67
84944;BME280;75231;53.650;9.788;2024-01-11T01:38:17;103454.16;;;-0.59;88.80
84944;BME280;75231;53.650;9.788;2024-01-11T01:40:43;103432.19;;;-0.57;88.48
84944;BME280;75231;53.650;9.788;2024-01-11T01:43:08;103440.63;;;-0.58;88.69
84944;BME280;75231;53.650;9.788;2024-01-11T01:45:38;103425.06;;;-0.70;89.13
84944;BME280;75231;53.650;9.788;2024-01-11T01:48:03;103437.13;;;-0.63;89.08
84944;BME280;75231;53.650;9.788;2024-01-11T01:50:29;103442.97;;;-0.66;89.06
84944;BME280;75231;53.650;9.788;2024-01-11T01:52:55;103457.34;;;-0.66;89.20
84944;BME280;75231;53.650;9.788;2024-01-11T01:55:21;103463.09;;;-0.73;88.74
84944;BME280;75231;53.650;9.788;2024-01-11T01:57:48;103473.47;;;-0.66;89.14
84944;BME280;75231;53.650;9.788;2024-01-11T02:00:15;103481.97;;;-0.65;89.05
84944;BME280;75231;53.650;9.788;2024-01-11T02:02:43;103489.75;;;-0.59;88.53
84944;BME280;75231;53.650;9.788;2024-01-11T02:05:10;103486.31;;;-0.61;88.79
84944;BME280;75231;53.650;9.788;2024-01-11T02:07:36;103479.50;;;-0.62;88.99
84944;BME280;75231;53.650;9.788;2024-01-11T02:10:02;103473.44;;;-0.67;89.17
84944;BME280;75231;53.650;9.788;2024-01-11T02:12:28;103483.81;;;-0.60;89.05
84944;BME280;75231;53.650;9.788;2024-01-11T02:14:54;103477.09;;;-0.58;89.18
84944;BME280;75231;53.650;9.788;2024-01-11T02:17:20;103481.44;;;-0.53;89.10
84944;BME280;75231;53.650;9.788;2024-01-11T02:19:46;103479.84;;;-0.50;89.12
84944;BME280;75231;53.650;9.788;2024-01-11T02:22:20;103473.84;;;-0.52;89.11
84944;BME280;75231;53.650;9.788;2024-01-11T02:24:47;103475.53;;;-0.52;89.23
84944;BME280;75231;53.650;9.788;2024-01-11T02:27:12;103476.47;;;-0.49;89.28
84944;BME280;75231;53.650;9.788;2024-01-11T02:29:38;103476.47;;;-0.49;88.85
84944;BME280;75231;53.650;9.788;2024-01-11T02:32:03;103482.59;;;-0.42;89.06
84944;BME280;75231;53.650;9.788;2024-01-11T02:34:31;103508.16;;;-0.38;88.68
84944;BME280;75231;53.650;9.788;2024-01-11T02:36:57;103508.97;;;-0.39;88.91
84944;BME280;75231;53.650;9.788;2024-01-11T02:39:23;103490.25;;;-0.41;89.10
84944;BME280;75231;53.650;9.788;2024-01-11T02:41:50;103491.09;;;-0.40;89.14
84944;BME280;75231;53.650;9.788;2024-01-11T02:44:16;103479.28;;;-0.40;89.17
84944;BME280;75231;53.650;9.788;2024-01-11T02:46:41;103480.00;;;-0.44;89.62
84944;BME280;75231;53.650;9.788;2024-01-11T02:49:06;103478.75;;;-0.26;88.87
84944;BME280;75231;53.650;9.788;2024-01-11T02:51:32;103490.59;;;-0.29;88.48
84944;BME280;75231;53.650;9.788;2024-01-11T02:53:57;103493.28;;;-0.22;88.21
84944;BME280;75231;53.650;9.788;2024-01-11T02:56:23;103492.31;;;-0.28;88.33
84944;BME280;75231;53.650;9.788;2024-01-11T02:58:48;103483.66;;;-0.34;88.62
84944;BME280;75231;53.650;9.788;2024-01-11T03:01:14;103479.94;;;-0.47;88.93
84944;BME280;75231;53.650;9.788;2024-01-11T03:03:39;103483.59;;;-0.36;88.54
84944;BME280;75231;53.650;9.788;2024-01-11T03:06:04;103482.81;;;-0.33;88.54
84944;BME280;75231;53.650;9.788;2024-01-11T03:08:30;103492.13;;;-0.34;88.85
84944;BME280;75231;53.650;9.788;2024-01-11T03:10:55;103488.56;;;-0.40;89.03
84944;BME280;75231;53.650;9.788;2024-01-11T03:13:20;103485.94;;;-0.43;88.89
84944;BME280;75231;53.650;9.788;2024-01-11T03:15:46;103488.69;;;-0.36;88.72
84944;BME280;75231;53.650;9.788;2024-01-11T03:18:11;103484.56;;;-0.32;88.88
84944;BME280;75231;53.650;9.788;2024-01-11T03:20:36;103479.50;;;-0.31;88.37
84944;BME280;75231;53.650;9.788;2024-01-11T03:23:02;103462.34;;;-0.39;88.62
84944;BME280;75231;53.650;9.788;2024-01-11T03:25:29;103475.13;;;-0.36;88.78
84944;BME280;75231;53.650;9.788;2024-01-11T03:27:54;103471.88;;;-0.31;88.72
84944;BME280;75231;53.650;9.788;2024-01-11T03:30:19;103473.59;;;-0.30;88.30
84944;BME280;75231;53.650;9.788;2024-01-11T03:32:45;103471.25;;;-0.22;87.99
84944;BME280;75231;53.650;9.788;2024-01-11T03:35:10;103481.47;;;-0.20;87.89
84944;BME280;75231;53.650;9.788;2024-01-11T03:37:35;103491.50;;;-0.25;87.50
84944;BME280;75231;53.650;9.788;2024-01-11T03:40:02;103494.88;;;-0.26;88.19
84944;BME280;75231;53.650;9.788;2024-01-11T03:42:28;103511.13;;;-0.21;88.25
84944;BME280;75231;53.650;9.788;2024-01-11T03:44:54;103519.00;;;-0.12;87.91
84944;BME280;75231;53.650;9.788;2024-01-11T03:47:19;103513.13;;;-0.09;87.77
84944;BME280;75231;53.650;9.788;2024-01-11T03:49:44;103517.31;;;-0.11;87.84
84944;BME280;75231;53.650;9.788;2024-01-11T03:52:10;103497.81;;;-0.11;86.93
84944;BME280;75231;53.650;9.788;2024-01-11T03:54:35;103494.25;;;-0.17;86.96
84944;BME280;75231;53.650;9.788;2024-01-11T03:57:01;103486.78;;;-0.11;86.55
84944;BME280;75231;53.650;9.788;2024-01-11T03:59:26;103479.00;;;-0.17;86.98
84944;BME280;75231;53.650;9.788;2024-01-11T04:01:51;103476.41;;;-0.19;87.04
84944;BME280;75231;53.650;9.788;2024-01-11T04:04:17;103466.16;;;-0.22;87.08
84944;BME280;75231;53.650;9.788;2024-01-11T04:06:44;103463.59;;;-0.23;87.19
84944;BME280;75231;53.650;9.788;2024-01-11T04:09:10;103461.31;;;-0.13;86.31
84944;BME280;75231;53.650;9.788;2024-01-11T04:11:35;103450.25;;;-0.15;86.04
84944;BME280;75231;53.650;9.788;2024-01-11T04:14:00;103441.66;;;-0.18;86.29
84944;BME280;75231;53.650;9.788;2024-01-11T04:16:26;103447.41;;;-0.25;86.26
84944;BME280;75231;53.650;9.788;2024-01-11T04:18:51;103443.91;;;-0.31;86.52
84944;BME280;75231;53.650;9.788;2024-01-11T04:21:23;103449.13;;;-0.24;86.47
84944;BME280;75231;53.650;9.788;2024-01-11T04:23:49;103449.72;;;-0.35;86.88
84944;BME280;75231;53.650;9.788;2024-01-11T04:26:15;103425.06;;;-0.39;87.07
84944;BME280;75231;53.650;9.788;2024-01-11T04:28:40;103422.41;;;-0.42;87.12
84944;BME280;75231;53.650;9.788;2024-01-11T04:31:08;103406.94;;;-0.51;87.21
84944;BME280;75231;53.650;9.788;2024-01-11T04:33:33;103400.28;;;-0.46;87.56
84944;BME280;75231;53.650;9.788;2024-01-11T04:35:58;103394.41;;;-0.43;87.64
84944;BME280;75231;53.650;9.788;2024-01-11T04:38:23;103390.28;;;-0.40;87.58
84944;BME280;75231;53.650;9.788;2024-01-11T04:40:49;103408.13;;;-0.38;87.66
84944;BME280;75231;53.650;9.788;2024-01-11T04:43:14;103414.97;;;-0.34;87.15
84944;BME280;75231;53.650;9.788;2024-01-11T04:45:40;103393.78;;;-0.35;87.10
84944;BME280;75231;53.650;9.788;2024-01-11T04:48:05;103386.81;;;-0.42;87.52
84944;BME280;75231;53.650;9.788;2024-01-11T04:50:30;103378.44;;;-0.39;87.93
84944;BME280;75231;53.650;9.788;2024-01-11T04:52:56;103376.06;;;-0.32;87.76
84944;BME280;75231;53.650;9.788;2024-01-11T04:55:21;103380.91;;;-0.41;88.13
84944;BME280;75231;53.650;9.788;2024-01-11T04:57:46;103401.38;;;-0.36;88.29
84944;BME280;75231;53.650;9.788;2024-01-11T05:00:12;103427.91;;;-0.26;88.08
84944;BME280;75231;53.650;9.788;2024-01-11T05:02:37;103440.78;;;-0.20;88.07
84944;BME280;75231;53.650;9.788;2024-01-11T05:05:03;103442.38;;;-0.24;88.04
84944;BME280;75231;53.650;9.788;2024-01-11T05:07:28;103441.63;;;-0.20;88.17
84944;BME280;75231;53.650;9.788;2024-01-11T05:09:54;103422.06;;;-0.22;88.40
84944;BME280;75231;53.650;9.788;2024-01-11T05:12:19;103417.88;;;-0.20;88.27
84944;BME280;75231;53.650;9.788;2024-01-11T05:14:44;103426.25;;;-0.24;89.00
84944;BME280;75231;53.650;9.788;2024-01-11T05:17:09;103417.06;;;-0.19;88.55
84944;BME280;75231;53.650;9.788;2024-01-11T05:19:35;103406.47;;;-0.36;89.29
84944;BME280;75231;53.650;9.788;2024-01-11T05:22:00;103408.34;;;-0.29;89.41
84944;BME280;75231;53.650;9.788;2024-01-11T05:24:25;103412.75;;;-0.22;89.41
84944;BME280;75231;53.650;9.788;2024-01-11T05:26:51;103417.13;;;-0.16;89.40
84944;BME280;75231;53.650;9.788;2024-01-11T05:29:16;103417.84;;;-0.22;89.41
84944;BME280;75231;53.650;9.788;2024-01-11T05:31:41;103421.09;;;-0.28;89.70
84944;BME280;75231;53.650;9.788;2024-01-11T05:34:07;103433.06;;;-0.23;89.81
84944;BME280;75231;53.650;9.788;2024-01-11T05:36:34;103432.47;;;-0.13;89.54
84944;BME280;75231;53.650;9.788;2024-01-11T05:38:59;103436.66;;;-0.15;89.82
84944;BME280;75231;53.650;9.788;2024-01-11T05:41:24;103435.00;;;-0.13;89.55
84944;BME280;75231;53.650;9.788;2024-01-11T05:43:50;103419.06;;;-0.08;90.00
84944;BME280;75231;53.650;9.788;2024-01-11T05:46:15;103412.13;;;-0.13;90.05
84944;BME280;75231;53.650;9.788;2024-01-11T05:48:41;103417.94;;;-0.17;89.90
84944;BME280;75231;53.650;9.788;2024-01-11T05:51:08;103406.94;;;-0.16;90.35
84944;BME280;75231;53.650;9.788;2024-01-11T05:53:33;103412.84;;;-0.17;90.69
84944;BME280;75231;53.650;9.788;2024-01-11T05:56:00;103404.50;;;-0.13;90.36
84944;BME280;75231;53.650;9.788;2024-01-11T05:58:25;103391.16;;;-0.03;90.28
84944;BME280;75231;53.650;9.788;2024-01-11T06:00:51;103386.00;;;-0.06;90.32
84944;BME280;75231;53.650;9.788;2024-01-11T06:03:16;103392.88;;;-0.02;90.32
84944;BME280;75231;53.650;9.788;2024-01-11T06:05:41;103378.34;;;-0.08;90.46
84944;BME280;75231;53.650;9.788;2024-01-11T06:08:07;103387.56;;;-0.11;90.66
84944;BME280;75231;53.650;9.788;2024-01-11T06:10:33;103398.56;;;-0.12;90.60
84944;BME280;75231;53.650;9.788;2024-01-11T06:12:58;103388.63;;;-0.03;90.48
84944;BME280;75231;53.650;9.788;2024-01-11T06:15:23;103378.47;;;-0.02;90.30
84944;BME280;75231;53.650;9.788;2024-01-11T06:17:48;103392.88;;;-0.02;90.70
84944;BME280;75231;53.650;9.788;2024-01-11T06:20:14;103381.06;;;0.00;90.52
84944;BME280;75231;53.650;9.788;2024-01-11T06:22:39;103391.19;;;-0.02;90.42
84944;BME280;75231;53.650;9.788;2024-01-11T06:25:05;103402.47;;;0.08;90.07
84944;BME280;75231;53.650;9.788;2024-01-11T06:27:30;103404.03;;;0.03;90.26
84944;BME280;75231;53.650;9.788;2024-01-11T06:29:56;103395.50;;;0.01;90.74
84944;BME280;75231;53.650;9.788;2024-01-11T06:32:21;103399.03;;;0.08;90.62
84944;BME280;75231;53.650;9.788;2024-01-11T06:34:46;103387.97;;;0.06;90.67
84944;BME280;75231;53.650;9.788;2024-01-11T06:37:12;103394.88;;;0.11;90.60
84944;BME280;75231;53.650;9.788;2024-01-11T06:39:38;103391.47;;;0.09;90.72
84944;BME280;75231;53.650;9.788;2024-01-11T06:42:03;103401.56;;;0.08;90.93
84944;BME280;75231;53.650;9.788;2024-01-11T06:44:29;103398.41;;;0.16;90.72
84944;BME280;75231;53.650;9.788;2024-01-11T06:46:55;103403.44;;;0.15;90.70
84944;BME280;75231;53.650;9.788;2024-01-11T06:49:21;103394.88;;;0.11;90.94
84944;BME280;75231;53.650;9.788;2024-01-11T06:51:47;103396.56;;;0.09;91.27
84944;BME280;75231;53.650;9.788;2024-01-11T06:54:12;103409.38;;;0.15;90.77
84944;BME280;75231;53.650;9.788;2024-01-11T06:56:37;103405.25;;;0.19;90.72
84944;BME280;75231;53.650;9.788;2024-01-11T06:59:02;103401.84;;;0.18;91.11
84944;BME280;75231;53.650;9.788;2024-01-11T07:01:28;103401.22;;;0.28;90.74
84944;BME280;75231;53.650;9.788;2024-01-11T07:03:53;103394.34;;;0.24;90.49
84944;BME280;75231;53.650;9.788;2024-01-11T07:06:19;103390.19;;;0.28;90.68
84944;BME280;75231;53.650;9.788;2024-01-11T07:08:44;103393.44;;;0.22;90.67
84944;BME280;75231;53.650;9.788;2024-01-11T07:11:09;103406.13;;;0.21;90.72
84944;BME280;75231;53.650;9.788;2024-01-11T07:13:35;103408.91;;;0.32;90.66
84944;BME280;75231;53.650;9.788;2024-01-11T07:16:00;103424.06;;;0.25;90.38
84944;BME280;75231;53.650;9.788;2024-01-11T07:18:28;103426.56;;;0.24;90.76
84944;BME280;75231;53.650;9.788;2024-01-11T07:20:56;103428.38;;;0.28;90.99
84944;BME280;75231;53.650;9.788;2024-01-11T07:23:21;103419.03;;;0.28;90.85
84944;BME280;75231;53.650;9.788;2024-01-11T07:25:47;103422.47;;;0.31;90.80
84944;BME280;75231;53.650;9.788;2024-01-11T07:28:12;103419.94;;;0.32;90.67
84944;BME280;75231;53.650;9.788;2024-01-11T07:30:37;103408.91;;;0.32;90.85
84944;BME280;75231;53.650;9.788;2024-01-11T07:33:03;103410.78;;;0.39;90.81
84944;BME280;75231;53.650;9.788;2024-01-11T07:35:29;103408.13;;;0.33;91.04
84944;BME280;75231;53.650;9.788;2024-01-11T07:37:55;103407.19;;;0.31;90.83
84944;BME280;75231;53.650;9.788;2024-01-11T07:40:21;103422.63;;;0.37;91.06
84944;BME280;75231;53.650;9.788;2024-01-11T07:42:46;103422.56;;;0.34;91.01
84944;BME280;75231;53.650;9.788;2024-01-11T07:45:12;103422.56;;;0.34;91.35
84944;BME280;75231;53.650;9.788;2024-01-11T07:47:39;103420.84;;;0.33;91.37
84944;BME280;75231;53.650;9.788;2024-01-11T07:50:05;103444.50;;;0.28;91.84
84944;BME280;75231;53.650;9.788;2024-01-11T07:52:40;103433.44;;;0.28;92.00
84944;BME280;75231;53.650;9.788;2024-01-11T07:55:09;103426.63;;;0.25;92.08
84944;BME280;75231;53.650;9.788;2024-01-11T07:57:39;103435.19;;;0.31;92.05
84944;BME280;75231;53.650;9.788;2024-01-11T08:00:05;103437.84;;;0.35;91.86
84944;BME280;75231;53.650;9.788;2024-01-11T08:02:34;103450.81;;;0.46;91.43
84944;BME280;75231;53.650;9.788;2024-01-11T08:05:00;103449.13;;;0.46;91.49
84944;BME280;75231;53.650;9.788;2024-01-11T08:07:26;103443.94;;;0.40;91.34
84944;BME280;75231;53.650;9.788;2024-01-11T08:09:51;103448.22;;;0.43;91.58
84944;BME280;75231;53.650;9.788;2024-01-11T08:12:17;103448.13;;;0.40;91.78
84944;BME280;75231;53.650;9.788;2024-01-11T08:14:42;103430.22;;;0.35;91.89
84944;BME280;75231;53.650;9.788;2024-01-11T08:17:08;103424.34;;;0.38;91.68
84944;BME280;75231;53.650;9.788;2024-01-11T08:19:34;103426.91;;;0.39;91.64
84944;BME280;75231;53.650;9.788;2024-01-11T08:22:00;103408.13;;;0.33;91.61
84944;BME280;75231;53.650;9.788;2024-01-11T08:24:25;103404.13;;;0.45;91.31
84944;BME280;75231;53.650;9.788;2024-01-11T08:26:51;103418.72;;;0.52;91.14
84944;BME280;75231;53.650;9.788;2024-01-11T08:29:16;103416.19;;;0.54;90.80
84944;BME280;75231;53.650;9.788;2024-01-11T08:31:44;103416.19;;;0.54;90.59
84944;BME280;75231;53.650;9.788;2024-01-11T08:34:15;103421.22;;;0.49;90.98
84944;BME280;75231;53.650;9.788;2024-01-11T08:36:40;103422.97;;;0.52;90.58
84944;BME280;75231;53.650;9.788;2024-01-11T08:39:06;103414.53;;;0.56;90.66
84944;BME280;75231;53.650;9.788;2024-01-11T08:41:32;103416.38;;;0.63;90.62
84944;BME280;75231;53.650;9.788;2024-01-11T08:43:58;103394.25;;;0.59;90.40
84944;BME280;75231;53.650;9.788;2024-01-11T08:46:27;103388.38;;;0.63;90.03
84944;BME280;75231;53.650;9.788;2024-01-11T08:48:53;103394.56;;;0.74;90.40
84944;BME280;75231;53.650;9.788;2024-01-11T08:51:19;103388.50;;;0.69;89.87
84944;BME280;75231;53.650;9.788;2024-01-11T08:53:44;103405.66;;;0.78;89.82
84944;BME280;75231;53.650;9.788;2024-01-11T08:56:10;103390.34;;;0.75;89.62
84944;BME280;75231;53.650;9.788;2024-01-11T08:58:35;103394.63;;;0.77;89.28
84944;BME280;75231;53.650;9.788;2024-01-11T09:01:01;103399.78;;;0.80;89.77
84944;BME280;75231;53.650;9.788;2024-01-11T09:03:28;103385.41;;;0.84;89.82
84944;BME280;75231;53.650;9.788;2024-01-11T09:05:53;103382.81;;;0.81;89.68
84944;BME280;75231;53.650;9.788;2024-01-11T09:08:22;103394.69;;;0.80;89.70
84944;BME280;75231;53.650;9.788;2024-01-11T09:10:47;103393.06;;;0.84;89.75
84944;BME280;75231;53.650;9.788;2024-01-11T09:13:12;103394.88;;;0.90;89.87
84944;BME280;75231;53.650;9.788;2024-01-11T09:15:38;103379.63;;;0.93;89.53
84944;BME280;75231;53.650;9.788;2024-01-11T09:18:03;103393.25;;;0.93;89.35
84944;BME280;75231;53.650;9.788;2024-01-11T09:20:28;103384.75;;;0.93;89.49
84944;BME280;75231;53.650;9.788;2024-01-11T09:22:54;103367.72;;;0.92;89.11
84944;BME280;75231;53.650;9.788;2024-01-11T09:25:19;103377.13;;;0.94;89.37
84944;BME280;75231;53.650;9.788;2024-01-11T09:27:44;103393.38;;;0.99;89.41
84944;BME280;75231;53.650;9.788;2024-01-11T09:30:10;103386.56;;;1.00;89.54
84944;BME280;75231;53.650;9.788;2024-01-11T09:32:35;103389.06;;;0.97;89.61
84944;BME280;75231;53.650;9.788;2024-01-11T09:35:02;103392.44;;;0.96;89.64
84944;BME280;75231;53.650;9.788;2024-01-11T09:37:27;103383.16;;;0.98;89.61
84944;BME280;75231;53.650;9.788;2024-01-11T09:39:53;103388.34;;;1.04;89.63
84944;BME280;75231;53.650;9.788;2024-01-11T09:42:18;103378.97;;;1.01;89.50
84944;BME280;75231;53.650;9.788;2024-01-11T09:44:49;103378.25;;;1.08;89.63
84944;BME280;75231;53.650;9.788;2024-01-11T09:47:15;103360.38;;;1.07;89.44
84944;BME280;75231;53.650;9.788;2024-01-11T09:49:44;103386.75;;;1.09;90.06
84944;BME280;75231;53.650;9.788;2024-01-11T09:52:11;103389.28;;;1.07;89.77
84944;BME280;75231;53.650;9.788;2024-01-11T09:54:38;103378.13;;;1.02;89.70
84944;BME280;75231;53.650;9.788;2024-01-11T09:57:06;103370.69;;;1.13;89.79
84944;BME280;75231;53.650;9.788;2024-01-11T09:59:32;103364.94;;;1.23;89.53
84944;BME280;75231;53.650;9.788;2024-01-11T10:02:00;103369.22;;;1.27;89.12
84944;BME280;75231;53.650;9.788;2024-01-11T10:04:26;103363.13;;;1.19;89.33
84944;BME280;75231;53.650;9.788;2024-01-11T10:06:53;103364.03;;;1.21;89.63
84944;BME280;75231;53.650;9.788;2024-01-11T10:09:19;103372.63;;;1.28;89.49
84944;BME280;75231;53.650;9.788;2024-01-11T10:11:45;103369.38;;;1.35;89.32
84944;BME280;75231;53.650;9.788;2024-01-11T10:14:12;103354.88;;;1.32;89.16
84944;BME280;75231;53.650;9.788;2024-01-11T10:16:37;103354.03;;;1.32;89.36
84944;BME280;75231;53.650;9.788;2024-01-11T10:19:02;103350.59;;;1.30;89.11
84944;BME280;75231;53.650;9.788;2024-01-11T10:21:28;103347.13;;;1.26;89.22
84944;BME280;75231;53.650;9.788;2024-01-11T10:23:57;103346.41;;;1.35;89.62
84944;BME280;75231;53.650;9.788;2024-01-11T10:26:22;103349.94;;;1.42;89.56
84944;BME280;75231;53.650;9.788;2024-01-11T10:28:48;103344.09;;;1.49;89.02
84944;BME280;75231;53.650;9.788;2024-01-11T10:31:13;103341.53;;;1.46;88.85
84944;BME280;75231;53.650;9.788;2024-01-11T10:33:40;103352.66;;;1.52;88.99
84944;BME280;75231;53.650;9.788;2024-01-11T10:36:06;103355.19;;;1.51;89.16
84944;BME280;75231;53.650;9.788;2024-01-11T10:38:36;103365.53;;;1.58;88.75
84944;BME280;75231;53.650;9.788;2024-01-11T10:41:04;103357.09;;;1.61;88.48
84944;BME280;75231;53.650;9.788;2024-01-11T10:43:31;103345.00;;;1.51;88.63
84944;BME280;75231;53.650;9.788;2024-01-11T10:46:00;103368.88;;;1.56;88.64
84944;BME280;75231;53.650;9.788;2024-01-11T10:48:30;103382.66;;;1.67;88.73
84944;BME280;75231;53.650;9.788;2024-01-11T10:50:59;103376.78;;;1.71;88.27
84944;BME280;75231;53.650;9.788;2024-01-11T10:56:48;103387.84;;;1.70;88.53
84944;BME280;75231;53.650;9.788;2024-01-11T10:59:22;103394.69;;;1.74;88.49
84944;BME280;75231;53.650;9.788;2024-01-11T11:01:53;103393.09;;;1.79;88.50
84944;BME280;75231;53.650;9.788;2024-01-11T11:04:21;103387.22;;;1.85;88.15
84944;BME280;75231;53.650;9.788;2024-01-11T11:06:49;103398.22;;;1.82;88.08
84944;BME280;75231;53.650;9.788;2024-01-11T11:09:17;103397.44;;;1.85;88.15
84944;BME280;75231;53.650;9.788;2024-01-11T11:11:42;103399.09;;;1.83;88.27
84944;BME280;75231;53.650;9.788;2024-01-11T11:14:09;103396.50;;;1.81;88.18
84944;BME280;75231;53.650;9.788;2024-01-11T11:16:35;103386.19;;;1.75;88.64
84944;BME280;75231;53.650;9.788;2024-01-11T11:19:00;103381.94;;;1.74;88.51
84944;BME280;75231;53.650;9.788;2024-01-11T11:21:26;103380.31;;;1.78;88.39
84944;BME280;75231;53.650;9.788;2024-01-11T11:23:52;103376.09;;;1.81;88.49
84944;BME280;75231;53.650;9.788;2024-01-11T11:26:17;103370.97;;;1.78;88.34
84944;BME280;75231;53.650;9.788;2024-01-11T11:28:43;103370.88;;;1.75;88.38
84944;BME280;75231;53.650;9.788;2024-01-11T11:31:11;103366.59;;;1.73;88.84
84944;BME280;75231;53.650;9.788;2024-01-11T11:33:37;103365.78;;;1.75;88.76
84944;BME280;75231;53.650;9.788;2024-01-11T11:36:03;103359.06;;;1.80;88.15
84944;BME280;75231;53.650;9.788;2024-01-11T11:38:30;103355.69;;;1.81;88.97
84944;BME280;75231;53.650;9.788;2024-01-11T11:40:59;103360.81;;;1.84;88.63
84944;BME280;75231;53.650;9.788;2024-01-11T11:43:29;103359.94;;;1.81;88.57
84944;BME280;75231;53.650;9.788;2024-01-11T11:45:55;103353.97;;;1.80;88.80
84944;BME280;75231;53.650;9.788;2024-01-11T11:51:13;103362.56;;;1.85;88.62
84944;BME280;75231;53.650;9.788;2024-01-11T11:53:40;103358.31;;;1.86;89.08
84944;BME280;75231;53.650;9.788;2024-01-11T11:56:07;103350.72;;;1.90;88.53
84944;BME280;75231;53.650;9.788;2024-01-11T11:58:34;103349.94;;;1.93;88.25
84944;BME280;75231;53.650;9.788;2024-01-11T12:01:01;103349.00;;;1.89;88.73
84944;BME280;75231;53.650;9.788;2024-01-11T12:03:30;103354.09;;;1.89;88.82
84944;BME280;75231;53.650;9.788;2024-01-11T12:05:57;103347.38;;;1.94;88.63
84944;BME280;75231;53.650;9.788;2024-01-11T12:08:22;103337.16;;;1.93;89.04
84944;BME280;75231;53.650;9.788;2024-01-11T12:10:48;103332.88;;;1.92;89.48
84944;BME280;75231;53.650;9.788;2024-01-11T12:13:13;103331.25;;;1.99;89.06
84944;BME280;75231;53.650;9.788;2024-01-11T12:15:40;103327.06;;;2.01;88.91
84944;BME280;75231;53.650;9.788;2024-01-11T12:18:05;103323.72;;;2.08;89.04
84944;BME280;75231;53.650;9.788;2024-01-11T12:20:32;103324.66;;;2.11;89.03
84944;BME280;75231;53.650;9.788;2024-01-11T12:22:58;103320.44;;;2.16;88.82
84944;BME280;75231;53.650;9.788;2024-01-11T12:25:23;103308.56;;;2.17;88.57
84944;BME280;75231;53.650;9.788;2024-01-11T12:27:49;103311.16;;;2.23;88.79
84944;BME280;75231;53.650;9.788;2024-01-11T12:30:16;103296.75;;;2.25;88.50
84944;BME280;75231;53.650;9.788;2024-01-11T12:32:43;103293.28;;;2.23;88.58
84944;BME280;75231;53.650;9.788;2024-01-11T12:35:09;103292.53;;;2.29;88.72
84944;BME280;75231;53.650;9.788;2024-01-11T12:37:34;103298.56;;;2.35;88.37
84944;BME280;75231;53.650;9.788;2024-01-11T12:40:00;103298.66;;;2.41;88.18
84944;BME280;75231;53.650;9.788;2024-01-11T12:42:26;103295.25;;;2.42;88.00
84944;BME280;75231;53.650;9.788;2024-01-11T12:44:52;103296.13;;;2.44;87.91
84944;BME280;75231;53.650;9.788;2024-01-11T12:47:17;103302.19;;;2.52;88.42
84944;BME280;75231;53.650;9.788;2024-01-11T12:49:46;103301.34;;;2.55;88.70
84944;BME280;75231;53.650;9.788;2024-01-11T12:52:18;103293.75;;;2.60;87.99
84944;BME280;75231;53.650;9.788;2024-01-11T12:54:52;103298.88;;;2.63;87.69
84944;BME280;75231;53.650;9.788;2024-01-11T12:57:20;103292.94;;;2.64;87.65